sensor_id;sensor_type;location;lat;lon;timestamp;P1;durP1;ratioP1;P2;durP2;ratioP2
6821;SDS011;3449;48.728;8.968;2023-01-16T00:01:15;1.57;;;0.97;;
6821;SDS011;3449;48.728;8.968;2023-01-16T00:03:43;3.13;;;0.87;;
6821;SDS011;3449;48.728;8.968;2023-01-16T00:06:10;3.80;;;0.77;;
6821;SDS011;3449;48.728;8.968;2023-01-16T00:08:37;4.20;;;0.90;;
6821;SDS011;3449;48.728;8.968;2023-01-16T00:11:03;4.17;;;0.77;;
6821;SDS011;3449;48.728;8.968;2023-01-16T00:13:30;2.70;;;0.70;;
6821;SDS011;3449;48.728;8.968;2023-01-16T00:15:59;3.37;;;0.70;;
6821;SDS011;3449;48.728;8.968;2023-01-16T00:18:25;4.57;;;0.83;;
6821;SDS011;3449;48.728;8.968;2023-01-16T00:20:52;1.17;;;0.50;;
6821;SDS011;3449;48.728;8.968;2023-01-16T00:23:19;5.80;;;0.70;;
6821;SDS011;3449;48.728;8.968;2023-01-16T00:25:46;2.60;;;0.60;;
6821;SDS011;3449;48.728;8.968;2023-01-16T00:28:13;2.20;;;0.83;;
6821;SDS011;3449;48.728;8.968;2023-01-16T00:30:40;2.50;;;0.60;;
6821;SDS011;3449;48.728;8.968;2023-01-16T00:33:09;0.80;;;0.30;;
6821;SDS011;3449;48.728;8.968;2023-01-16T00:35:36;1.23;;;0.43;;
6821;SDS011;3449;48.728;8.968;2023-01-16T00:38:03;1.60;;;0.50;;
6821;SDS011;3449;48.728;8.968;2023-01-16T00:40:31;0.60;;;0.53;;
6821;SDS011;3449;48.728;8.968;2023-01-16T00:42:58;2.03;;;0.70;;
6821;SDS011;3449;48.728;8.968;2023-01-16T00:45:24;1.37;;;0.57;;
6821;SDS011;3449;48.728;8.968;2023-01-16T00:47:51;2.13;;;0.53;;
6821;SDS011;3449;48.728;8.968;2023-01-16T00:50:19;3.60;;;0.83;;
6821;SDS011;3449;48.728;8.968;2023-01-16T00:52:46;3.97;;;0.80;;
6821;SDS011;3449;48.728;8.968;2023-01-16T00:55:13;3.83;;;0.70;;
6821;SDS011;3449;48.728;8.968;2023-01-16T00:57:40;1.13;;;0.90;;
6821;SDS011;3449;48.728;8.968;2023-01-16T01:00:08;1.13;;;0.70;;
6821;SDS011;3449;48.728;8.968;2023-01-16T01:02:35;6.93;;;0.83;;
6821;SDS011;3449;48.728;8.968;2023-01-16T01:05:02;2.87;;;0.50;;
6821;SDS011;3449;48.728;8.968;2023-01-16T01:07:32;1.20;;;0.73;;
6821;SDS011;3449;48.728;8.968;2023-01-16T01:09:59;2.83;;;0.77;;
6821;SDS011;3449;48.728;8.968;2023-01-16T01:12:26;1.00;;;0.57;;
6821;SDS011;3449;48.728;8.968;2023-01-16T01:14:53;1.07;;;0.50;;
6821;SDS011;3449;48.728;8.968;2023-01-16T01:17:20;3.57;;;0.80;;
6821;SDS011;3449;48.728;8.968;2023-01-16T01:19:47;13.33;;;1.10;;
6821;SDS011;3449;48.728;8.968;2023-01-16T01:22:13;4.00;;;0.37;;
6821;SDS011;3449;48.728;8.968;2023-01-16T01:24:43;4.83;;;0.37;;
6821;SDS011;3449;48.728;8.968;2023-01-16T01:27:13;2.77;;;0.70;;
6821;SDS011;3449;48.728;8.968;2023-01-16T01:29:40;1.37;;;0.70;;
6821;SDS011;3449;48.728;8.968;2023-01-16T01:32:07;0.43;;;0.30;;
6821;SDS011;3449;48.728;8.968;2023-01-16T01:34:34;2.97;;;0.50;;
6821;SDS011;3449;48.728;8.968;2023-01-16T01:37:01;1.50;;;0.60;;
6821;SDS011;3449;48.728;8.968;2023-01-16T01:39:29;2.20;;;0.70;;
6821;SDS011;3449;48.728;8.968;2023-01-16T01:41:57;9.40;;;0.67;;
6821;SDS011;3449;48.728;8.968;2023-01-16T01:44:44;1.10;;;0.60;;
6821;SDS011;3449;48.728;8.968;2023-01-16T01:47:15;2.93;;;0.50;;
6821;SDS011;3449;48.728;8.968;2023-01-16T01:49:45;1.00;;;0.50;;
6821;SDS011;3449;48.728;8.968;2023-01-16T01:52:12;4.40;;;0.80;;
6821;SDS011;3449;48.728;8.968;2023-01-16T01:54:40;1.20;;;0.57;;
6821;SDS011;3449;48.728;8.968;2023-01-16T01:57:12;3.80;;;0.57;;
6821;SDS011;3449;48.728;8.968;2023-01-16T01:59:44;2.10;;;0.80;;
6821;SDS011;3449;48.728;8.968;2023-01-16T02:02:16;2.50;;;0.70;;
6821;SDS011;3449;48.728;8.968;2023-01-16T02:04:47;1.57;;;0.47;;
6821;SDS011;3449;48.728;8.968;2023-01-16T02:07:17;1.17;;;0.50;;
6821;SDS011;3449;48.728;8.968;2023-01-16T02:09:46;2.00;;;0.37;;
6821;SDS011;3449;48.728;8.968;2023-01-16T02:12:14;1.10;;;0.47;;
6821;SDS011;3449;48.728;8.968;2023-01-16T02:14:43;1.53;;;0.70;;
6821;SDS011;3449;48.728;8.968;2023-01-16T02:17:13;1.13;;;0.43;;
6821;SDS011;3449;48.728;8.968;2023-01-16T02:20:03;1.63;;;0.50;;
6821;SDS011;3449;48.728;8.968;2023-01-16T02:22:55;1.00;;;0.63;;
6821;SDS011;3449;48.728;8.968;2023-01-16T02:29:10;1.00;;;0.60;;
6821;SDS011;3449;48.728;8.968;2023-01-16T02:31:59;1.07;;;0.53;;
6821;SDS011;3449;48.728;8.968;2023-01-16T02:34:38;2.03;;;0.50;;
6821;SDS011;3449;48.728;8.968;2023-01-16T02:37:17;3.63;;;0.80;;
6821;SDS011;3449;48.728;8.968;2023-01-16T02:39:55;1.60;;;0.50;;
6821;SDS011;3449;48.728;8.968;2023-01-16T02:42:33;1.10;;;0.50;;
6821;SDS011;3449;48.728;8.968;2023-01-16T02:45:09;3.93;;;0.47;;
6821;SDS011;3449;48.728;8.968;2023-01-16T02:47:51;2.90;;;0.80;;
6821;SDS011;3449;48.728;8.968;2023-01-16T02:50:26;7.00;;;2.63;;
6821;SDS011;3449;48.728;8.968;2023-01-16T02:52:57;5.43;;;1.10;;
6821;SDS011;3449;48.728;8.968;2023-01-16T02:55:29;0.47;;;0.37;;
6821;SDS011;3449;48.728;8.968;2023-01-16T02:58:01;0.70;;;0.60;;
6821;SDS011;3449;48.728;8.968;2023-01-16T03:00:30;5.17;;;0.53;;
6821;SDS011;3449;48.728;8.968;2023-01-16T03:03:00;0.43;;;0.30;;
6821;SDS011;3449;48.728;8.968;2023-01-16T03:05:28;4.83;;;0.67;;
6821;SDS011;3449;48.728;8.968;2023-01-16T03:08:08;2.20;;;0.40;;
6821;SDS011;3449;48.728;8.968;2023-01-16T03:17:04;0.60;;;0.60;;
6821;SDS011;3449;48.728;8.968;2023-01-16T03:19:49;3.23;;;0.87;;
6821;SDS011;3449;48.728;8.968;2023-01-16T03:22:29;1.03;;;0.67;;
6821;SDS011;3449;48.728;8.968;2023-01-16T03:25:08;1.93;;;1.50;;
6821;SDS011;3449;48.728;8.968;2023-01-16T03:27:44;7.80;;;4.53;;
6821;SDS011;3449;48.728;8.968;2023-01-16T03:30:23;6.20;;;1.80;;
6821;SDS011;3449;48.728;8.968;2023-01-16T03:32:56;1.23;;;0.83;;
6821;SDS011;3449;48.728;8.968;2023-01-16T03:35:29;9.60;;;1.00;;
6821;SDS011;3449;48.728;8.968;2023-01-16T03:38:00;6.40;;;0.53;;
6821;SDS011;3449;48.728;8.968;2023-01-16T03:40:31;0.90;;;0.63;;
6821;SDS011;3449;48.728;8.968;2023-01-16T03:43:01;3.97;;;0.57;;
6821;SDS011;3449;48.728;8.968;2023-01-16T03:45:33;0.93;;;0.50;;
6821;SDS011;3449;48.728;8.968;2023-01-16T03:48:07;0.50;;;0.40;;
6821;SDS011;3449;48.728;8.968;2023-01-16T03:50:38;0.40;;;0.30;;
6821;SDS011;3449;48.728;8.968;2023-01-16T03:53:10;1.70;;;0.50;;
6821;SDS011;3449;48.728;8.968;2023-01-16T03:55:44;1.93;;;0.63;;
6821;SDS011;3449;48.728;8.968;2023-01-16T03:58:21;1.63;;;0.60;;
6821;SDS011;3449;48.728;8.968;2023-01-16T04:00:57;1.07;;;0.40;;
6821;SDS011;3449;48.728;8.968;2023-01-16T04:03:36;2.40;;;0.40;;
6821;SDS011;3449;48.728;8.968;2023-01-16T04:06:10;1.80;;;0.80;;
6821;SDS011;3449;48.728;8.968;2023-01-16T04:08:42;1.47;;;0.40;;
6821;SDS011;3449;48.728;8.968;2023-01-16T04:11:11;3.27;;;0.50;;
6821;SDS011;3449;48.728;8.968;2023-01-16T04:13:41;0.50;;;0.40;;
6821;SDS011;3449;48.728;8.968;2023-01-16T04:16:11;2.93;;;0.60;;
6821;SDS011;3449;48.728;8.968;2023-01-16T04:18:43;1.87;;;0.70;;
6821;SDS011;3449;48.728;8.968;2023-01-16T04:21:11;1.93;;;0.70;;
6821;SDS011;3449;48.728;8.968;2023-01-16T04:23:38;7.90;;;0.70;;
6821;SDS011;3449;48.728;8.968;2023-01-16T04:26:05;0.87;;;0.60;;
6821;SDS011;3449;48.728;8.968;2023-01-16T04:28:32;3.93;;;0.60;;
6821;SDS011;3449;48.728;8.968;2023-01-16T04:30:59;8.57;;;1.77;;
6821;SDS011;3449;48.728;8.968;2023-01-16T04:33:26;1.57;;;0.70;;
6821;SDS011;3449;48.728;8.968;2023-01-16T04:35:52;2.33;;;0.60;;
6821;SDS011;3449;48.728;8.968;2023-01-16T04:38:21;4.40;;;0.50;;
6821;SDS011;3449;48.728;8.968;2023-01-16T04:40:47;3.13;;;0.57;;
6821;SDS011;3449;48.728;8.968;2023-01-16T04:43:14;1.73;;;0.53;;
6821;SDS011;3449;48.728;8.968;2023-01-16T04:45:41;5.10;;;0.60;;
6821;SDS011;3449;48.728;8.968;2023-01-16T04:48:08;1.37;;;0.60;;
6821;SDS011;3449;48.728;8.968;2023-01-16T04:50:35;4.23;;;0.53;;
6821;SDS011;3449;48.728;8.968;2023-01-16T04:53:02;3.77;;;0.73;;
6821;SDS011;3449;48.728;8.968;2023-01-16T04:55:30;0.80;;;0.70;;
6821;SDS011;3449;48.728;8.968;2023-01-16T04:57:57;0.50;;;0.47;;
6821;SDS011;3449;48.728;8.968;2023-01-16T05:00:24;2.60;;;0.60;;
6821;SDS011;3449;48.728;8.968;2023-01-16T05:02:52;2.70;;;0.80;;
6821;SDS011;3449;48.728;8.968;2023-01-16T05:05:19;3.13;;;0.73;;
6821;SDS011;3449;48.728;8.968;2023-01-16T05:07:46;3.73;;;0.80;;
6821;SDS011;3449;48.728;8.968;2023-01-16T05:10:34;2.40;;;0.70;;
6821;SDS011;3449;48.728;8.968;2023-01-16T05:13:01;2.33;;;0.83;;
6821;SDS011;3449;48.728;8.968;2023-01-16T05:15:28;2.20;;;0.70;;
6821;SDS011;3449;48.728;8.968;2023-01-16T05:17:55;2.43;;;0.73;;
6821;SDS011;3449;48.728;8.968;2023-01-16T05:20:22;0.90;;;0.50;;
6821;SDS011;3449;48.728;8.968;2023-01-16T05:22:49;2.53;;;0.83;;
6821;SDS011;3449;48.728;8.968;2023-01-16T05:25:16;1.70;;;0.40;;
6821;SDS011;3449;48.728;8.968;2023-01-16T05:27:44;1.60;;;0.40;;
6821;SDS011;3449;48.728;8.968;2023-01-16T05:30:15;3.13;;;0.70;;
6821;SDS011;3449;48.728;8.968;2023-01-16T05:32:42;0.50;;;0.40;;
6821;SDS011;3449;48.728;8.968;2023-01-16T05:35:09;1.37;;;0.60;;
6821;SDS011;3449;48.728;8.968;2023-01-16T05:37:36;1.30;;;0.47;;
6821;SDS011;3449;48.728;8.968;2023-01-16T05:40:03;1.87;;;0.60;;
6821;SDS011;3449;48.728;8.968;2023-01-16T05:42:30;0.73;;;0.70;;
6821;SDS011;3449;48.728;8.968;2023-01-16T05:44:58;1.40;;;0.73;;
6821;SDS011;3449;48.728;8.968;2023-01-16T05:47:25;1.57;;;0.73;;
6821;SDS011;3449;48.728;8.968;2023-01-16T05:49:52;3.40;;;0.60;;
6821;SDS011;3449;48.728;8.968;2023-01-16T05:52:23;1.93;;;0.80;;
6821;SDS011;3449;48.728;8.968;2023-01-16T05:54:50;1.80;;;0.50;;
6821;SDS011;3449;48.728;8.968;2023-01-16T05:57:17;3.20;;;0.73;;
6821;SDS011;3449;48.728;8.968;2023-01-16T05:59:47;14.10;;;0.77;;
6821;SDS011;3449;48.728;8.968;2023-01-16T06:02:15;1.70;;;0.70;;
6821;SDS011;3449;48.728;8.968;2023-01-16T06:04:42;1.60;;;0.70;;
6821;SDS011;3449;48.728;8.968;2023-01-16T06:07:09;0.60;;;0.47;;
6821;SDS011;3449;48.728;8.968;2023-01-16T06:09:36;1.43;;;0.70;;
6821;SDS011;3449;48.728;8.968;2023-01-16T06:12:04;1.07;;;0.60;;
6821;SDS011;3449;48.728;8.968;2023-01-16T06:14:33;7.40;;;0.73;;
6821;SDS011;3449;48.728;8.968;2023-01-16T06:17:06;2.40;;;0.70;;
6821;SDS011;3449;48.728;8.968;2023-01-16T06:19:34;2.53;;;0.60;;
6821;SDS011;3449;48.728;8.968;2023-01-16T06:22:01;1.40;;;1.23;;
6821;SDS011;3449;48.728;8.968;2023-01-16T06:24:28;2.77;;;0.77;;
6821;SDS011;3449;48.728;8.968;2023-01-16T06:26:55;2.00;;;1.20;;
6821;SDS011;3449;48.728;8.968;2023-01-16T06:29:22;1.07;;;0.87;;
6821;SDS011;3449;48.728;8.968;2023-01-16T06:31:49;3.20;;;0.70;;
6821;SDS011;3449;48.728;8.968;2023-01-16T06:34:16;2.30;;;1.17;;
6821;SDS011;3449;48.728;8.968;2023-01-16T06:36:44;2.53;;;1.27;;
6821;SDS011;3449;48.728;8.968;2023-01-16T06:39:13;2.00;;;1.00;;
6821;SDS011;3449;48.728;8.968;2023-01-16T06:41:40;4.40;;;1.53;;
6821;SDS011;3449;48.728;8.968;2023-01-16T06:44:08;3.30;;;1.03;;
6821;SDS011;3449;48.728;8.968;2023-01-16T06:46:35;4.17;;;1.53;;
6821;SDS011;3449;48.728;8.968;2023-01-16T06:49:02;2.63;;;1.60;;
6821;SDS011;3449;48.728;8.968;2023-01-16T06:51:29;4.60;;;1.73;;
6821;SDS011;3449;48.728;8.968;2023-01-16T06:53:57;2.10;;;1.60;;
6821;SDS011;3449;48.728;8.968;2023-01-16T06:56:24;3.33;;;1.57;;
6821;SDS011;3449;48.728;8.968;2023-01-16T06:58:51;3.73;;;1.60;;
6821;SDS011;3449;48.728;8.968;2023-01-16T07:01:18;1.50;;;1.13;;
6821;SDS011;3449;48.728;8.968;2023-01-16T07:03:45;1.90;;;1.30;;
6821;SDS011;3449;48.728;8.968;2023-01-16T07:06:12;2.83;;;1.60;;
6821;SDS011;3449;48.728;8.968;2023-01-16T07:08:39;3.23;;;1.20;;
6821;SDS011;3449;48.728;8.968;2023-01-16T07:11:07;6.37;;;1.43;;
6821;SDS011;3449;48.728;8.968;2023-01-16T07:13:35;6.33;;;2.23;;
6821;SDS011;3449;48.728;8.968;2023-01-16T07:16:02;3.80;;;2.70;;
6821;SDS011;3449;48.728;8.968;2023-01-16T07:18:46;2.00;;;1.23;;
6821;SDS011;3449;48.728;8.968;2023-01-16T07:21:29;1.83;;;1.20;;
6821;SDS011;3449;48.728;8.968;2023-01-16T07:24:16;1.57;;;1.47;;
6821;SDS011;3449;48.728;8.968;2023-01-16T07:26:47;3.40;;;2.03;;
6821;SDS011;3449;48.728;8.968;2023-01-16T07:29:17;1.97;;;1.63;;
6821;SDS011;3449;48.728;8.968;2023-01-16T07:31:44;2.30;;;0.90;;
6821;SDS011;3449;48.728;8.968;2023-01-16T07:34:11;5.80;;;0.90;;
6821;SDS011;3449;48.728;8.968;2023-01-16T07:36:38;1.33;;;0.77;;
6821;SDS011;3449;48.728;8.968;2023-01-16T07:39:05;3.53;;;2.10;;
6821;SDS011;3449;48.728;8.968;2023-01-16T07:41:32;3.90;;;2.10;;
6821;SDS011;3449;48.728;8.968;2023-01-16T07:44:00;12.30;;;3.23;;
6821;SDS011;3449;48.728;8.968;2023-01-16T07:46:27;23.00;;;9.03;;
6821;SDS011;3449;48.728;8.968;2023-01-16T07:48:53;21.13;;;6.10;;
6821;SDS011;3449;48.728;8.968;2023-01-16T07:51:21;14.57;;;5.40;;
6821;SDS011;3449;48.728;8.968;2023-01-16T07:53:48;9.33;;;4.10;;
6821;SDS011;3449;48.728;8.968;2023-01-16T07:56:15;17.60;;;5.30;;
6821;SDS011;3449;48.728;8.968;2023-01-16T07:58:42;8.87;;;3.47;;
6821;SDS011;3449;48.728;8.968;2023-01-16T08:01:10;24.23;;;7.60;;
6821;SDS011;3449;48.728;8.968;2023-01-16T08:03:38;10.33;;;3.63;;
6821;SDS011;3449;48.728;8.968;2023-01-16T08:06:05;6.57;;;2.40;;
6821;SDS011;3449;48.728;8.968;2023-01-16T08:08:32;14.63;;;4.30;;
6821;SDS011;3449;48.728;8.968;2023-01-16T08:11:00;6.40;;;3.20;;
6821;SDS011;3449;48.728;8.968;2023-01-16T08:13:50;5.70;;;2.53;;
6821;SDS011;3449;48.728;8.968;2023-01-16T08:16:18;5.23;;;2.23;;
6821;SDS011;3449;48.728;8.968;2023-01-16T08:18:45;4.23;;;1.33;;
6821;SDS011;3449;48.728;8.968;2023-01-16T08:21:14;3.73;;;1.60;;
6821;SDS011;3449;48.728;8.968;2023-01-16T08:23:41;4.83;;;1.57;;
6821;SDS011;3449;48.728;8.968;2023-01-16T08:26:08;4.93;;;1.57;;
6821;SDS011;3449;48.728;8.968;2023-01-16T08:28:35;2.33;;;1.47;;
6821;SDS011;3449;48.728;8.968;2023-01-16T08:31:03;4.60;;;1.10;;
6821;SDS011;3449;48.728;8.968;2023-01-16T08:33:34;8.63;;;1.30;;
6821;SDS011;3449;48.728;8.968;2023-01-16T08:36:01;9.33;;;1.77;;
6821;SDS011;3449;48.728;8.968;2023-01-16T08:38:29;6.23;;;1.60;;
6821;SDS011;3449;48.728;8.968;2023-01-16T08:40:56;2.53;;;1.00;;
6821;SDS011;3449;48.728;8.968;2023-01-16T08:43:23;2.40;;;1.20;;
6821;SDS011;3449;48.728;8.968;2023-01-16T08:46:10;4.60;;;1.37;;
6821;SDS011;3449;48.728;8.968;2023-01-16T08:49:02;10.23;;;2.20;;
6821;SDS011;3449;48.728;8.968;2023-01-16T08:51:47;3.47;;;1.37;;
6821;SDS011;3449;48.728;8.968;2023-01-16T08:54:15;4.57;;;2.23;;
6821;SDS011;3449;48.728;8.968;2023-01-16T08:56:42;2.60;;;1.10;;
6821;SDS011;3449;48.728;8.968;2023-01-16T08:59:08;10.30;;;1.83;;
6821;SDS011;3449;48.728;8.968;2023-01-16T09:01:36;4.47;;;2.13;;
6821;SDS011;3449;48.728;8.968;2023-01-16T09:04:05;2.93;;;1.80;;
6821;SDS011;3449;48.728;8.968;2023-01-16T09:06:35;1.63;;;1.37;;
6821;SDS011;3449;48.728;8.968;2023-01-16T09:09:03;3.60;;;1.20;;
6821;SDS011;3449;48.728;8.968;2023-01-16T09:11:30;2.80;;;0.73;;
6821;SDS011;3449;48.728;8.968;2023-01-16T09:14:14;1.20;;;1.10;;
6821;SDS011;3449;48.728;8.968;2023-01-16T09:16:41;1.00;;;1.00;;
6821;SDS011;3449;48.728;8.968;2023-01-16T09:19:10;5.83;;;2.23;;
6821;SDS011;3449;48.728;8.968;2023-01-16T09:21:37;3.87;;;1.60;;
6821;SDS011;3449;48.728;8.968;2023-01-16T09:24:04;8.97;;;1.67;;
6821;SDS011;3449;48.728;8.968;2023-01-16T09:26:32;5.17;;;1.60;;
6821;SDS011;3449;48.728;8.968;2023-01-16T09:28:59;4.30;;;1.10;;
6821;SDS011;3449;48.728;8.968;2023-01-16T09:31:26;3.00;;;1.10;;
6821;SDS011;3449;48.728;8.968;2023-01-16T09:33:53;3.57;;;0.80;;
6821;SDS011;3449;48.728;8.968;2023-01-16T09:36:21;3.13;;;0.80;;
6821;SDS011;3449;48.728;8.968;2023-01-16T09:38:48;4.00;;;1.20;;
6821;SDS011;3449;48.728;8.968;2023-01-16T09:41:15;1.60;;;1.20;;
6821;SDS011;3449;48.728;8.968;2023-01-16T09:43:58;1.00;;;0.53;;
6821;SDS011;3449;48.728;8.968;2023-01-16T09:46:26;0.40;;;0.30;;
6821;SDS011;3449;48.728;8.968;2023-01-16T09:48:57;0.70;;;0.50;;
6821;SDS011;3449;48.728;8.968;2023-01-16T09:51:28;2.87;;;0.50;;
6821;SDS011;3449;48.728;8.968;2023-01-16T09:53:59;0.80;;;0.33;;
6821;SDS011;3449;48.728;8.968;2023-01-16T09:56:46;0.50;;;0.50;;
6821;SDS011;3449;48.728;8.968;2023-01-16T09:59:48;0.70;;;0.50;;
6821;SDS011;3449;48.728;8.968;2023-01-16T10:02:19;0.60;;;0.60;;
6821;SDS011;3449;48.728;8.968;2023-01-16T10:04:49;0.93;;;0.50;;
6821;SDS011;3449;48.728;8.968;2023-01-16T10:07:34;1.30;;;0.60;;
6821;SDS011;3449;48.728;8.968;2023-01-16T10:10:18;1.17;;;0.60;;
6821;SDS011;3449;48.728;8.968;2023-01-16T10:12:55;0.87;;;0.50;;
6821;SDS011;3449;48.728;8.968;2023-01-16T10:15:31;0.70;;;0.40;;
6821;SDS011;3449;48.728;8.968;2023-01-16T10:18:09;1.23;;;0.70;;
6821;SDS011;3449;48.728;8.968;2023-01-16T10:20:50;1.07;;;0.80;;
6821;SDS011;3449;48.728;8.968;2023-01-16T10:23:32;0.70;;;0.40;;
6821;SDS011;3449;48.728;8.968;2023-01-16T10:26:08;1.10;;;0.57;;
6821;SDS011;3449;48.728;8.968;2023-01-16T10:28:46;0.83;;;0.70;;
6821;SDS011;3449;48.728;8.968;2023-01-16T10:31:22;4.43;;;0.97;;
6821;SDS011;3449;48.728;8.968;2023-01-16T10:33:54;4.17;;;0.70;;
6821;SDS011;3449;48.728;8.968;2023-01-16T10:36:27;6.07;;;1.00;;
6821;SDS011;3449;48.728;8.968;2023-01-16T10:38:59;1.83;;;0.87;;
6821;SDS011;3449;48.728;8.968;2023-01-16T10:41:27;12.50;;;3.73;;
6821;SDS011;3449;48.728;8.968;2023-01-16T10:44:27;6.10;;;3.03;;
6821;SDS011;3449;48.728;8.968;2023-01-16T10:47:15;2.17;;;1.23;;
6821;SDS011;3449;48.728;8.968;2023-01-16T10:50:00;2.33;;;1.00;;
6821;SDS011;3449;48.728;8.968;2023-01-16T10:52:28;4.83;;;1.97;;
6821;SDS011;3449;48.728;8.968;2023-01-16T10:54:57;2.60;;;0.90;;
6821;SDS011;3449;48.728;8.968;2023-01-16T10:57:25;2.00;;;1.00;;
6821;SDS011;3449;48.728;8.968;2023-01-16T10:59:53;1.77;;;1.67;;
6821;SDS011;3449;48.728;8.968;2023-01-16T11:02:24;6.00;;;1.80;;
6821;SDS011;3449;48.728;8.968;2023-01-16T11:04:55;1.13;;;0.60;;
6821;SDS011;3449;48.728;8.968;2023-01-16T11:07:24;1.07;;;0.50;;
6821;SDS011;3449;48.728;8.968;2023-01-16T11:09:54;3.77;;;0.60;;
6821;SDS011;3449;48.728;8.968;2023-01-16T11:12:23;0.97;;;0.93;;
6821;SDS011;3449;48.728;8.968;2023-01-16T11:15:13;0.50;;;0.40;;
6821;SDS011;3449;48.728;8.968;2023-01-16T11:17:59;0.90;;;0.30;;
6821;SDS011;3449;48.728;8.968;2023-01-16T11:20:44;0.40;;;0.30;;
6821;SDS011;3449;48.728;8.968;2023-01-16T11:23:16;0.50;;;0.40;;
6821;SDS011;3449;48.728;8.968;2023-01-16T11:25:44;0.80;;;0.50;;
6821;SDS011;3449;48.728;8.968;2023-01-16T11:28:15;1.37;;;0.60;;
6821;SDS011;3449;48.728;8.968;2023-01-16T11:30:46;0.50;;;0.40;;
6821;SDS011;3449;48.728;8.968;2023-01-16T11:33:15;1.27;;;0.60;;
6821;SDS011;3449;48.728;8.968;2023-01-16T11:35:47;0.50;;;0.40;;
6821;SDS011;3449;48.728;8.968;2023-01-16T11:38:20;1.03;;;0.60;;
6821;SDS011;3449;48.728;8.968;2023-01-16T11:40:47;0.60;;;0.30;;
6821;SDS011;3449;48.728;8.968;2023-01-16T11:43:21;0.50;;;0.30;;
6821;SDS011;3449;48.728;8.968;2023-01-16T11:46:10;0.70;;;0.60;;
6821;SDS011;3449;48.728;8.968;2023-01-16T11:48:52;1.37;;;0.63;;
6821;SDS011;3449;48.728;8.968;2023-01-16T11:51:26;0.60;;;0.50;;
6821;SDS011;3449;48.728;8.968;2023-01-16T11:53:54;2.60;;;1.07;;
6821;SDS011;3449;48.728;8.968;2023-01-16T11:59:22;1.97;;;0.67;;
6821;SDS011;3449;48.728;8.968;2023-01-16T12:02:05;0.50;;;0.50;;
6821;SDS011;3449;48.728;8.968;2023-01-16T12:04:45;0.87;;;0.47;;
6821;SDS011;3449;48.728;8.968;2023-01-16T12:07:33;2.10;;;1.40;;
6821;SDS011;3449;48.728;8.968;2023-01-16T12:10:11;1.97;;;0.70;;
6821;SDS011;3449;48.728;8.968;2023-01-16T12:12:51;0.80;;;0.70;;
6821;SDS011;3449;48.728;8.968;2023-01-16T12:15:45;2.70;;;1.13;;
6821;SDS011;3449;48.728;8.968;2023-01-16T12:18:24;0.70;;;0.40;;
6821;SDS011;3449;48.728;8.968;2023-01-16T12:20:59;0.80;;;0.50;;
6821;SDS011;3449;48.728;8.968;2023-01-16T12:23:46;1.00;;;0.80;;
6821;SDS011;3449;48.728;8.968;2023-01-16T12:26:19;0.60;;;0.47;;
6821;SDS011;3449;48.728;8.968;2023-01-16T12:28:56;1.10;;;0.50;;
6821;SDS011;3449;48.728;8.968;2023-01-16T12:31:37;0.83;;;0.40;;
6821;SDS011;3449;48.728;8.968;2023-01-16T12:34:26;0.70;;;0.40;;
6821;SDS011;3449;48.728;8.968;2023-01-16T12:37:10;2.20;;;0.67;;
6821;SDS011;3449;48.728;8.968;2023-01-16T12:39:47;0.70;;;0.30;;
6821;SDS011;3449;48.728;8.968;2023-01-16T12:42:24;0.80;;;0.60;;
6821;SDS011;3449;48.728;8.968;2023-01-16T12:45:22;2.20;;;0.80;;
6821;SDS011;3449;48.728;8.968;2023-01-16T12:48:03;0.50;;;0.50;;
6821;SDS011;3449;48.728;8.968;2023-01-16T12:50:47;1.17;;;0.70;;
6821;SDS011;3449;48.728;8.968;2023-01-16T12:53:26;1.03;;;0.93;;
6821;SDS011;3449;48.728;8.968;2023-01-16T12:56:11;1.27;;;0.97;;
6821;SDS011;3449;48.728;8.968;2023-01-16T12:58:50;0.70;;;0.70;;
6821;SDS011;3449;48.728;8.968;2023-01-16T13:01:20;0.40;;;0.30;;
6821;SDS011;3449;48.728;8.968;2023-01-16T13:03:54;1.10;;;0.50;;
6821;SDS011;3449;48.728;8.968;2023-01-16T13:06:27;0.60;;;0.40;;
6821;SDS011;3449;48.728;8.968;2023-01-16T13:08:58;1.17;;;1.07;;
6821;SDS011;3449;48.728;8.968;2023-01-16T13:11:36;1.83;;;0.67;;
6821;SDS011;3449;48.728;8.968;2023-01-16T13:14:29;1.07;;;1.07;;
6821;SDS011;3449;48.728;8.968;2023-01-16T13:16:58;1.57;;;0.70;;
6821;SDS011;3449;48.728;8.968;2023-01-16T13:19:32;1.60;;;0.80;;
6821;SDS011;3449;48.728;8.968;2023-01-16T13:22:04;1.10;;;0.70;;
6821;SDS011;3449;48.728;8.968;2023-01-16T13:24:34;0.87;;;0.50;;
6821;SDS011;3449;48.728;8.968;2023-01-16T13:27:07;0.70;;;0.40;;
6821;SDS011;3449;48.728;8.968;2023-01-16T13:29:40;0.70;;;0.50;;
6821;SDS011;3449;48.728;8.968;2023-01-16T13:32:15;2.30;;;0.70;;
6821;SDS011;3449;48.728;8.968;2023-01-16T13:34:50;8.17;;;1.23;;
6821;SDS011;3449;48.728;8.968;2023-01-16T13:37:27;0.50;;;0.43;;
6821;SDS011;3449;48.728;8.968;2023-01-16T13:40:17;3.03;;;0.90;;
6821;SDS011;3449;48.728;8.968;2023-01-16T13:42:58;0.50;;;0.40;;
6821;SDS011;3449;48.728;8.968;2023-01-16T13:45:42;1.60;;;0.83;;
6821;SDS011;3449;48.728;8.968;2023-01-16T13:48:15;0.97;;;0.87;;
6821;SDS011;3449;48.728;8.968;2023-01-16T13:50:47;1.47;;;0.60;;
6821;SDS011;3449;48.728;8.968;2023-01-16T13:53:18;1.10;;;0.60;;
6821;SDS011;3449;48.728;8.968;2023-01-16T13:55:47;0.60;;;0.50;;
6821;SDS011;3449;48.728;8.968;2023-01-16T13:58:15;0.60;;;0.50;;
6821;SDS011;3449;48.728;8.968;2023-01-16T14:00:45;0.50;;;0.50;;
6821;SDS011;3449;48.728;8.968;2023-01-16T14:03:22;0.77;;;0.30;;
6821;SDS011;3449;48.728;8.968;2023-01-16T14:05:52;1.60;;;0.50;;
6821;SDS011;3449;48.728;8.968;2023-01-16T14:08:28;0.77;;;0.60;;
6821;SDS011;3449;48.728;8.968;2023-01-16T14:11:34;3.53;;;0.40;;
6821;SDS011;3449;48.728;8.968;2023-01-16T14:14:20;0.63;;;0.40;;
6821;SDS011;3449;48.728;8.968;2023-01-16T14:17:04;1.60;;;0.80;;
6821;SDS011;3449;48.728;8.968;2023-01-16T14:19:35;0.83;;;0.60;;
6821;SDS011;3449;48.728;8.968;2023-01-16T14:22:05;0.53;;;0.53;;
6821;SDS011;3449;48.728;8.968;2023-01-16T14:24:51;0.50;;;0.40;;
6821;SDS011;3449;48.728;8.968;2023-01-16T14:27:21;1.17;;;0.53;;
6821;SDS011;3449;48.728;8.968;2023-01-16T14:29:52;1.17;;;0.83;;
6821;SDS011;3449;48.728;8.968;2023-01-16T14:32:24;1.23;;;0.50;;
6821;SDS011;3449;48.728;8.968;2023-01-16T14:34:53;3.60;;;0.37;;
6821;SDS011;3449;48.728;8.968;2023-01-16T14:37:23;1.23;;;0.60;;
6821;SDS011;3449;48.728;8.968;2023-01-16T14:39:54;0.70;;;0.30;;
6821;SDS011;3449;48.728;8.968;2023-01-16T14:42:26;2.97;;;0.57;;
6821;SDS011;3449;48.728;8.968;2023-01-16T14:45:23;1.33;;;0.87;;
6821;SDS011;3449;48.728;8.968;2023-01-16T14:48:10;0.97;;;0.63;;
6821;SDS011;3449;48.728;8.968;2023-01-16T14:50:59;0.80;;;0.70;;
6821;SDS011;3449;48.728;8.968;2023-01-16T14:53:45;1.40;;;0.57;;
6821;SDS011;3449;48.728;8.968;2023-01-16T14:56:32;4.13;;;0.60;;
6821;SDS011;3449;48.728;8.968;2023-01-16T14:59:03;0.83;;;0.60;;
6821;SDS011;3449;48.728;8.968;2023-01-16T15:01:34;0.87;;;0.50;;
6821;SDS011;3449;48.728;8.968;2023-01-16T15:04:23;1.23;;;0.60;;
6821;SDS011;3449;48.728;8.968;2023-01-16T15:07:03;0.50;;;0.50;;
6821;SDS011;3449;48.728;8.968;2023-01-16T15:09:33;0.50;;;0.40;;
6821;SDS011;3449;48.728;8.968;2023-01-16T15:12:09;4.00;;;0.40;;
6821;SDS011;3449;48.728;8.968;2023-01-16T15:14:37;0.60;;;0.50;;
6821;SDS011;3449;48.728;8.968;2023-01-16T15:17:12;0.97;;;0.50;;
6821;SDS011;3449;48.728;8.968;2023-01-16T15:20:00;0.40;;;0.33;;
6821;SDS011;3449;48.728;8.968;2023-01-16T15:23:00;0.40;;;0.37;;
6821;SDS011;3449;48.728;8.968;2023-01-16T15:25:33;0.70;;;0.50;;
6821;SDS011;3449;48.728;8.968;2023-01-16T15:28:17;0.93;;;0.33;;
6821;SDS011;3449;48.728;8.968;2023-01-16T15:30:49;0.40;;;0.30;;
6821;SDS011;3449;48.728;8.968;2023-01-16T15:33:23;0.40;;;0.40;;
6821;SDS011;3449;48.728;8.968;2023-01-16T15:36:15;0.50;;;0.30;;
6821;SDS011;3449;48.728;8.968;2023-01-16T15:38:58;0.80;;;0.60;;
6821;SDS011;3449;48.728;8.968;2023-01-16T15:41:28;0.40;;;0.30;;
6821;SDS011;3449;48.728;8.968;2023-01-16T15:44:15;0.63;;;0.40;;
6821;SDS011;3449;48.728;8.968;2023-01-16T15:47:04;0.40;;;0.33;;
6821;SDS011;3449;48.728;8.968;2023-01-16T15:50:10;0.50;;;0.40;;
6821;SDS011;3449;48.728;8.968;2023-01-16T15:52:46;0.50;;;0.30;;
6821;SDS011;3449;48.728;8.968;2023-01-16T15:55:18;1.17;;;0.60;;
6821;SDS011;3449;48.728;8.968;2023-01-16T15:57:49;0.60;;;0.53;;
6821;SDS011;3449;48.728;8.968;2023-01-16T16:00:22;1.00;;;0.57;;
6821;SDS011;3449;48.728;8.968;2023-01-16T16:02:55;0.77;;;0.77;;